Etusivu
METAR-TAF:

METAR-TAF

Lentoasemat :

Örebron lentoasema

Örebro, Ruotsi

Leveyspiiri: 59-14N, Pituuspiiri: 015-03E, korkeus merenpinnasta: 57 m

Tämänhetkinen sää

Tämä raportti tehtiin 53 minuuttia sitten, kello 14.50 UTC
Tuuli 10 kn lounaasta, vaihdellen etelän/lounaan ja lännen/luoteen välillä
Lämpötila 28°C
Kosteus 40%
Ilmanpaine 1010 hPa
Näkyvyys 10 km tai enemmän
ei pilviä alle 1500 m:ssä eikä cumulonimbus-pilviä

METAR: ESOE 231450Z 23010KT 200V290 CAVOK 28/13 Q1010

Aika: 17:43 (15:43 UTC)

Sääennuste

Tämä raportti tehtiin 1 tunti ja 13 minuuttia sitten, kello 14.30 UTC
Ennuste voimassa 23. päivästä klo 15 UTC - 23. päivään klo 24 UTC
Tuuli 8 kn lounaasta
Näkyvyys 10 km tai enemmän
ei pilviä alle 1500 m:ssä eikä cumulonimbus-pilviä

TAF: ESOE 231430Z 2315/2324 23008KT CAVOK

Säähavainnot ja -ennusteet yli 4000 lentoasemalta (METAR- ja TAF-raportit).

Käytössä olevat sääasemat on merkitty karttaan keltaisilla ja punaisilla pisteillä.

Aseta hiiri pisteen päälle nähdäksesi sääaseman nimen.

Klikkaa sitten nähdäksesi säähavainnot ja -ennusteet.

Kartan vaihtaminen: klikkaa mustalla rastilla varustettuja vihreitä pisteitä, niin voit zoomata sisään; viivalla varustettua vihreää pistettä, niin voit zoomata ulos tai vihreitä nuolia, niin pääset viereisille kartoille.


METAR-TAF: